Time;durP1;ratioP1;P1;durP2;ratioP2;P2;SDS_P1;SDS_P2;PMS_P1;PMS_P2;Temp;Humidity;BMP_temperature;BMP_pressure;BME280_temperature;BME280_humidity;BME280_pressure;Samples;Min_cycle;Max_cycle;Signal;HPM_P1;HPM_P2
2021/12/20 00:00:45;;;;;;;6.70;2.43;;;1.40;96.30;;;;;;4864420;29;20434;-82
2021/12/20 00:03:10;;;;;;;5.53;1.30;;;1.50;96.30;;;;;;4863288;29;20178;-81
2021/12/20 00:05:36;;;;;;;6.20;1.83;;;1.50;96.30;;;;;;4863055;29;20231;-82
2021/12/20 00:08:02;;;;;;;10.07;1.60;;;1.50;96.30;;;;;;4864187;29;20186;-80
2021/12/20 00:10:27;;;;;;;9.40;1.90;;;1.50;96.30;;;;;;4864685;29;20183;-81
2021/12/20 00:12:53;;;;;;;10.70;2.17;;;1.50;96.30;;;;;;4863264;29;20647;-81
2021/12/20 00:15:19;;;;;;;5.10;2.13;;;1.50;96.30;;;;;;4863404;29;20278;-81
2021/12/20 00:17:45;;;;;;;7.13;1.60;;;1.30;96.30;;;;;;4862984;29;20203;-81
2021/12/20 00:20:11;;;;;;;5.43;2.00;;;1.40;96.30;;;;;;4863053;29;20174;-81
2021/12/20 00:22:37;;;;;;;6.33;1.33;;;1.40;96.30;;;;;;4862884;29;20531;-81
2021/12/20 00:25:04;;;;;;;8.30;1.30;;;1.30;96.30;;;;;;4862859;29;20928;-81
2021/12/20 00:27:30;;;;;;;5.63;1.90;;;1.40;96.30;;;;;;4862710;29;20431;-80
2021/12/20 00:29:55;;;;;;;7.13;2.10;;;1.50;96.30;;;;;;4862935;29;20419;-81
2021/12/20 00:32:21;;;;;;;9.27;3.03;;;1.50;96.30;;;;;;4864529;29;20209;-81
2021/12/20 00:34:46;;;;;;;6.83;1.77;;;1.40;96.30;;;;;;4863065;29;20292;-81
2021/12/20 00:42:43;;;;;;;9.80;1.17;;;1.40;96.30;;;;;;4875298;29;20992;-81
2021/12/20 00:45:10;;;;;;;6.10;1.60;;;1.40;96.30;;;;;;4863741;29;20426;-81
2021/12/20 00:47:37;;;;;;;5.07;1.83;;;1.30;96.30;;;;;;4862435;29;20423;-81
2021/12/20 00:50:04;;;;;;;2.90;1.20;;;1.30;96.30;;;;;;4864172;29;20935;-81
2021/12/20 00:52:30;;;;;;;12.43;2.50;;;1.30;96.30;;;;;;4863146;29;20443;-81
2021/12/20 00:54:56;;;;;;;8.27;1.60;;;1.20;96.30;;;;;;4862831;29;20968;-81
2021/12/20 00:57:21;;;;;;;7.83;2.17;;;1.20;96.30;;;;;;4862825;29;20182;-81
2021/12/20 00:59:47;;;;;;;11.23;1.83;;;1.20;96.30;;;;;;4863488;29;20210;-81
2021/12/20 05:01:25;;;;;;;15.23;3.00;;;-1.50;96.30;;;;;;5385322;23;20597;-79
2021/12/20 05:03:50;;;;;;;8.27;2.73;;;-1.50;96.30;;;;;;4880529;29;20505;-80
2021/12/20 05:06:16;;;;;;;11.70;2.70;;;-1.40;96.30;;;;;;4880935;29;20186;-78
2021/12/20 05:08:50;;;;;;;3.73;2.10;;;-1.30;96.30;;;;;;4879252;29;20185;-80
2021/12/20 05:11:16;;;;;;;8.77;2.67;;;-1.30;96.30;;;;;;4880057;29;20618;-79
2021/12/20 05:13:42;;;;;;;7.60;2.70;;;-1.20;96.30;;;;;;4880193;29;20406;-79
2021/12/20 05:16:08;;;;;;;7.13;2.70;;;-1.20;96.30;;;;;;4881142;29;20215;-79
2021/12/20 05:18:34;;;;;;;7.20;2.97;;;-1.20;96.30;;;;;;4885926;29;20425;-78
2021/12/20 05:29:33;;;;;;;8.83;2.10;;;-1.10;96.30;;;;;;4844810;29;20880;-78
2021/12/20 05:31:58;;;;;;;9.33;2.60;;;-1.10;96.30;;;;;;4897602;29;20437;-79
2021/12/20 05:34:24;;;;;;;3.50;1.80;;;-1.00;96.30;;;;;;4872075;29;20242;-78
2021/12/20 05:36:50;;;;;;;8.90;2.60;;;-1.00;96.30;;;;;;4877101;29;20178;-78
2021/12/20 05:39:16;;;;;;;10.60;2.33;;;-1.00;96.30;;;;;;4878413;29;20204;-78
2021/12/20 05:41:41;;;;;;;11.03;2.77;;;-1.10;96.30;;;;;;4870023;29;20574;-77
2021/12/20 05:44:07;;;;;;;7.10;2.77;;;-1.10;96.30;;;;;;4863446;29;20267;-77
2021/12/20 05:46:33;;;;;;;11.67;2.70;;;-1.10;96.30;;;;;;4865450;29;20190;-78
2021/12/20 05:48:59;;;;;;;6.17;2.10;;;-1.10;96.30;;;;;;4872126;29;20663;-77
2021/12/20 05:51:24;;;;;;;9.13;3.23;;;-1.10;96.30;;;;;;4885164;29;20605;-77
2021/12/20 05:53:50;;;;;;;7.07;2.57;;;-1.10;96.30;;;;;;4874460;29;20190;-77
2021/12/20 05:56:15;;;;;;;8.83;2.67;;;-1.10;96.30;;;;;;4859402;29;20573;-77
2021/12/20 05:58:41;;;;;;;8.00;2.17;;;-1.10;96.30;;;;;;4859759;29;20311;-77
2021/12/20 06:01:07;;;;;;;7.23;2.67;;;-1.10;96.30;;;;;;4865369;29;20580;-76
2021/12/20 06:03:32;;;;;;;6.70;2.77;;;-1.10;96.30;;;;;;4878972;29;20205;-76
2021/12/20 06:05:58;;;;;;;5.27;2.30;;;-1.10;96.30;;;;;;4875558;29;20606;-76
2021/12/20 06:08:23;;;;;;;6.70;2.60;;;-1.10;96.30;;;;;;4888986;29;20288;-77
2021/12/20 06:10:49;;;;;;;4.90;2.20;;;-1.10;96.30;;;;;;4881156;29;20220;-76
2021/12/20 06:13:14;;;;;;;4.27;2.53;;;-1.10;96.30;;;;;;4879080;29;20190;-76
2021/12/20 06:15:40;;;;;;;16.23;2.70;;;-1.10;96.30;;;;;;4879073;29;20201;-76
2021/12/20 06:18:05;;;;;;;5.43;1.67;;;-1.00;96.30;;;;;;4878613;29;20182;-76
2021/12/20 06:20:31;;;;;;;9.10;2.60;;;-1.00;96.30;;;;;;4877467;29;20280;-76
2021/12/20 06:22:56;;;;;;;13.77;2.53;;;-1.00;96.30;;;;;;4877069;29;20181;-76
2021/12/20 06:25:23;;;;;;;5.90;1.97;;;-1.00;96.30;;;;;;4878369;29;20230;-76
2021/12/20 06:27:48;;;;;;;6.73;2.17;;;-1.00;96.30;;;;;;4876816;29;20265;-76
2021/12/20 06:30:14;;;;;;;8.60;2.73;;;-1.00;96.30;;;;;;4877973;29;20438;-76
2021/12/20 06:32:42;;;;;;;9.50;2.93;;;-1.00;96.30;;;;;;4878086;29;20185;-76
2021/12/20 06:35:09;;;;;;;5.20;2.67;;;-1.00;96.30;;;;;;4861938;29;20624;-76
2021/12/20 06:37:35;;;;;;;13.60;3.57;;;-1.10;96.30;;;;;;4881314;29;20916;-76
2021/12/20 06:40:01;;;;;;;3.70;2.63;;;-1.00;96.30;;;;;;4890386;29;20422;-76
2021/12/20 06:42:27;;;;;;;5.20;2.40;;;-1.10;96.30;;;;;;4878220;29;20809;-76
2021/12/20 06:44:53;;;;;;;4.83;2.43;;;-1.10;96.30;;;;;;4880270;29;20440;-77
2021/12/20 06:47:19;;;;;;;10.33;2.80;;;-1.10;96.30;;;;;;4881925;29;20832;-79
2021/12/20 06:49:45;;;;;;;7.37;2.63;;;-1.10;96.30;;;;;;4889232;29;20440;-77
2021/12/20 06:52:11;;;;;;;11.53;2.97;;;-1.10;96.30;;;;;;4893509;29;20807;-79
2021/12/20 06:54:37;;;;;;;8.80;2.77;;;-1.10;96.30;;;;;;4883334;29;20201;-78
2021/12/20 06:57:03;;;;;;;5.17;2.60;;;-1.10;96.30;;;;;;4877714;29;20497;-79
2021/12/20 06:59:29;;;;;;;10.60;3.00;;;-1.20;96.30;;;;;;4875242;29;20723;-79
2021/12/20 07:01:54;;;;;;;4.73;2.50;;;-1.20;96.30;;;;;;4880505;29;20450;-79
2021/12/20 07:04:21;;;;;;;13.37;3.00;;;-1.30;96.30;;;;;;4881365;29;20182;-79
2021/12/20 07:06:46;;;;;;;4.00;1.83;;;-1.30;96.30;;;;;;4880525;29;20230;-78
2021/12/20 07:09:12;;;;;;;5.17;2.57;;;-1.30;96.30;;;;;;4881507;29;20414;-79
2021/12/20 07:11:40;;;;;;;12.00;3.33;;;-1.30;96.30;;;;;;4880105;29;20642;-78
2021/12/20 07:14:06;;;;;;;8.40;2.60;;;-1.40;96.30;;;;;;4881315;29;20429;-79
2021/12/20 07:16:33;;;;;;;7.43;3.23;;;-1.40;96.30;;;;;;4880810;29;20449;-79
2021/12/20 07:18:59;;;;;;;8.30;3.57;;;-1.40;96.30;;;;;;4882501;29;20177;-78
2021/12/20 07:21:25;;;;;;;7.67;3.17;;;-1.30;96.30;;;;;;4881121;29;20441;-78
2021/12/20 07:23:50;;;;;;;8.00;3.10;;;-1.20;96.30;;;;;;4881288;29;20779;-79
2021/12/20 07:26:16;;;;;;;5.00;2.27;;;-1.30;96.30;;;;;;4888066;29;20201;-78
2021/12/20 07:28:43;;;;;;;9.27;3.43;;;-1.30;96.30;;;;;;4875533;29;20198;-79
2021/12/20 07:31:11;;;;;;;7.47;2.40;;;-1.30;96.30;;;;;;4893871;29;20334;-78
2021/12/20 07:33:36;;;;;;;9.07;2.97;;;-1.20;96.30;;;;;;4880943;29;20566;-79
2021/12/20 07:36:02;;;;;;;5.30;2.90;;;-1.20;96.30;;;;;;4880323;29;20939;-78
2021/12/20 07:38:28;;;;;;;9.40;2.63;;;-1.20;96.30;;;;;;4880937;29;20269;-77
2021/12/20 07:40:54;;;;;;;12.50;2.60;;;-1.20;96.30;;;;;;4879447;29;20449;-77
2021/12/20 07:43:20;;;;;;;8.77;3.33;;;-1.20;96.30;;;;;;4880876;29;20654;-77
2021/12/20 07:45:47;;;;;;;9.40;3.23;;;-1.30;96.30;;;;;;4880148;29;20182;-78
2021/12/20 07:48:14;;;;;;;6.97;2.90;;;-1.30;96.30;;;;;;4879405;29;20540;-77
2021/12/20 07:50:39;;;;;;;10.87;3.30;;;-1.20;96.30;;;;;;4885596;29;20452;-78
2021/12/20 07:53:05;;;;;;;7.93;3.30;;;-1.20;96.30;;;;;;4880426;29;20441;-78
2021/12/20 07:55:31;;;;;;;7.03;3.03;;;-1.30;96.30;;;;;;4880523;29;20614;-77
2021/12/20 07:57:57;;;;;;;14.37;2.30;;;-1.30;96.30;;;;;;4879968;29;20188;-77
2021/12/20 08:00:23;;;;;;;8.37;3.10;;;-1.20;96.30;;;;;;4879275;29;20181;-77
2021/12/20 08:02:49;;;;;;;10.73;2.37;;;-1.20;96.30;;;;;;4880965;29;20418;-78
2021/12/20 08:05:18;;;;;;;5.40;2.50;;;-1.20;96.30;;;;;;4879298;29;20429;-78
2021/12/20 08:07:45;;;;;;;11.53;2.13;;;-1.20;96.30;;;;;;4878457;29;20184;-78
2021/12/20 08:10:11;;;;;;;4.50;2.43;;;-1.10;96.30;;;;;;4880463;29;20453;-77
2021/12/20 08:12:36;;;;;;;16.63;2.77;;;-1.10;96.30;;;;;;4869065;29;20430;-77
2021/12/20 08:15:02;;;;;;;11.10;2.70;;;-1.10;96.30;;;;;;4888510;29;20554;-77
2021/12/20 08:17:28;;;;;;;8.73;3.17;;;-1.10;96.30;;;;;;4885852;29;20768;-77
2021/12/20 08:19:54;;;;;;;4.63;2.07;;;-1.10;96.30;;;;;;4880286;29;20241;-77
2021/12/20 08:22:24;;;;;;;11.77;3.00;;;-1.10;96.30;;;;;;4878897;29;20517;-77
2021/12/20 08:24:49;;;;;;;9.63;2.60;;;-1.00;96.30;;;;;;4880081;29;20193;-77
2021/12/20 08:27:15;;;;;;;7.07;2.40;;;-1.10;96.30;;;;;;4876738;29;20433;-78
2021/12/20 08:29:40;;;;;;;6.73;2.87;;;-1.10;96.30;;;;;;4875429;29;20709;-77
2021/12/20 08:32:06;;;;;;;11.03;2.30;;;-1.00;96.30;;;;;;4875328;29;20214;-77
2021/12/20 08:34:32;;;;;;;6.53;2.57;;;-1.00;96.30;;;;;;4878647;29;20538;-78
2021/12/20 08:37:00;;;;;;;8.13;2.70;;;-1.00;96.30;;;;;;4878173;29;20178;-78
2021/12/20 08:39:27;;;;;;;5.33;2.50;;;-1.00;96.30;;;;;;4885011;29;20181;-78
2021/12/20 08:41:52;;;;;;;5.17;2.10;;;-1.00;96.30;;;;;;4897189;29;20441;-79
2021/12/20 08:44:18;;;;;;;8.10;3.00;;;-1.00;96.30;;;;;;4898525;29;20421;-78
2021/12/20 08:46:44;;;;;;;12.77;2.60;;;-0.90;96.30;;;;;;4881342;29;20189;-78
2021/12/20 08:49:09;;;;;;;8.97;2.23;;;-0.80;96.30;;;;;;4887476;29;20422;-78
2021/12/20 08:51:36;;;;;;;6.30;1.87;;;-0.80;96.30;;;;;;4878334;29;20193;-78
2021/12/20 08:54:02;;;;;;;5.87;2.40;;;-0.80;96.30;;;;;;4878676;29;20181;-77
2021/12/20 08:56:27;;;;;;;5.93;2.50;;;-0.80;96.30;;;;;;4877179;29;20456;-79
2021/12/20 08:58:53;;;;;;;4.73;2.73;;;-0.80;96.30;;;;;;4860543;29;20213;-78
2021/12/20 09:01:18;;;;;;;6.27;2.37;;;-0.80;96.30;;;;;;4878135;29;20285;-78
2021/12/20 09:03:44;;;;;;;15.30;2.50;;;-0.80;96.30;;;;;;4869266;29;20174;-78
2021/12/20 09:06:10;;;;;;;14.10;3.47;;;-0.80;96.30;;;;;;4878513;29;20193;-79
2021/12/20 09:08:38;;;;;;;7.40;3.10;;;-0.70;96.30;;;;;;4877699;29;20422;-79
2021/12/20 09:11:04;;;;;;;11.00;2.90;;;-0.70;96.30;;;;;;4880999;29;21021;-78
2021/12/20 09:13:29;;;;;;;10.67;3.37;;;-0.70;96.30;;;;;;4897741;29;20425;-79
2021/12/20 09:15:59;;;;;;;5.93;2.30;;;-0.70;96.30;;;;;;4884695;29;20666;-79
2021/12/20 09:18:28;;;;;;;13.17;2.50;;;-0.60;96.30;;;;;;4878622;29;20204;-79
2021/12/20 09:20:55;;;;;;;10.50;2.77;;;-0.60;96.30;;;;;;4878850;29;20465;-79
2021/12/20 09:23:20;;;;;;;7.97;2.63;;;-0.60;96.30;;;;;;4872815;29;20429;-79
2021/12/20 09:25:46;;;;;;;11.07;3.13;;;-0.60;96.30;;;;;;4894911;29;20780;-79
2021/12/20 09:28:13;;;;;;;9.17;3.03;;;-0.50;96.30;;;;;;4883252;29;20605;-79
2021/12/20 09:30:41;;;;;;;11.33;2.00;;;-0.50;96.30;;;;;;4878491;29;20465;-79
2021/12/20 09:33:07;;;;;;;6.97;2.73;;;-0.50;96.30;;;;;;4877296;29;20939;-79
2021/12/20 09:35:34;;;;;;;6.77;3.50;;;-0.50;96.30;;;;;;4881710;29;20533;-79
2021/12/20 09:38:00;;;;;;;11.33;3.23;;;-0.50;96.30;;;;;;4881212;29;20185;-79
2021/12/20 09:40:33;;;;;;;10.10;3.20;;;-0.40;96.30;;;;;;4878873;29;20433;-79
2021/12/20 09:43:01;;;;;;;7.73;2.47;;;-0.30;96.30;;;;;;4878889;29;20606;-79
2021/12/20 09:45:27;;;;;;;8.07;2.40;;;-0.40;96.30;;;;;;4877303;29;20461;-79
2021/12/20 09:47:52;;;;;;;5.50;2.03;;;-0.30;96.30;;;;;;4893710;29;20906;-79
2021/12/20 09:50:18;;;;;;;8.93;3.20;;;-0.30;96.30;;;;;;4871798;29;20665;-79
2021/12/20 09:52:45;;;;;;;13.43;3.00;;;-0.30;96.30;;;;;;4876465;29;20193;-79
2021/12/20 09:55:14;;;;;;;11.73;2.70;;;-0.30;96.30;;;;;;4878549;29;20205;-79
2021/12/20 09:57:41;;;;;;;5.80;2.47;;;-0.30;96.30;;;;;;4877083;29;20421;-79
2021/12/20 10:00:09;;;;;;;7.43;2.13;;;-0.30;96.30;;;;;;4881451;29;20486;-79
2021/12/20 10:02:35;;;;;;;8.43;2.83;;;-0.30;96.30;;;;;;4885779;29;20447;-79
2021/12/20 10:05:00;;;;;;;8.27;2.50;;;-0.30;96.30;;;;;;4884774;29;20516;-79
2021/12/20 10:07:28;;;;;;;6.67;2.60;;;-0.30;96.30;;;;;;4878121;29;20194;-79
2021/12/20 10:09:54;;;;;;;8.03;3.20;;;-0.30;96.30;;;;;;4878472;29;20174;-79
2021/12/20 10:12:24;;;;;;;5.63;2.17;;;-0.20;96.30;;;;;;4878409;29;20457;-79
2021/12/20 10:14:56;;;;;;;12.57;2.47;;;-0.20;96.30;;;;;;4878448;29;20209;-78
2021/12/20 10:17:30;;;;;;;13.27;3.20;;;-0.10;96.30;;;;;;4877357;29;20429;-80
2021/12/20 10:20:10;;;;;;;4.93;2.10;;;-0.10;96.30;;;;;;4873219;29;20430;-79
2021/12/20 10:22:36;;;;;;;5.07;2.10;;;-0.10;96.30;;;;;;4884839;29;20441;-80
2021/12/20 10:25:02;;;;;;;11.37;2.47;;;-0.10;96.30;;;;;;4885405;29;20434;-79
2021/12/20 10:27:35;;;;;;;10.53;3.17;;;-0.20;96.30;;;;;;4878078;29;20177;-79
2021/12/20 10:30:20;;;;;;;7.77;2.47;;;-0.20;96.30;;;;;;4882014;29;20452;-79
2021/12/20 10:32:46;;;;;;;11.53;2.97;;;-0.20;96.30;;;;;;4876418;29;20525;-79
2021/12/20 10:35:39;;;;;;;3.00;2.20;;;-0.10;96.30;;;;;;4869719;29;20533;-79
2021/12/20 10:38:27;;;;;;;10.23;2.80;;;-0.10;96.30;;;;;;4880307;29;20186;-79
2021/12/20 10:40:58;;;;;;;10.03;2.77;;;-0.10;96.30;;;;;;4868395;29;20462;-79
2021/12/20 10:43:32;;;;;;;5.60;2.40;;;-0.10;96.30;;;;;;4881162;29;20429;-79
2021/12/20 10:45:58;;;;;;;7.70;2.07;;;-0.10;96.30;;;;;;4881527;29;20550;-79
2021/12/20 10:48:31;;;;;;;9.67;2.50;;;-0.10;96.30;;;;;;4882022;29;20950;-79
2021/12/20 10:50:57;;;;;;;7.57;2.13;;;-0.20;96.30;;;;;;4880434;29;20452;-78
2021/12/20 10:53:24;;;;;;;7.93;2.40;;;-0.30;96.30;;;;;;4882023;29;20418;-79
2021/12/20 10:55:55;;;;;;;11.10;2.60;;;-0.20;96.30;;;;;;4881602;29;20506;-79
2021/12/20 10:58:29;;;;;;;8.57;2.50;;;-0.30;96.30;;;;;;4880602;29;20482;-79
2021/12/20 11:01:23;;;;;;;3.33;2.10;;;-0.20;96.30;;;;;;4896759;29;20439;-79
2021/12/20 11:04:12;;;;;;;6.87;2.80;;;-0.10;96.30;;;;;;4900476;29;20400;-79
2021/12/20 11:09:19;;;;;;;6.90;2.83;;;-0.20;96.30;;;;;;4881820;29;20425;-79
2021/12/20 11:11:58;;;;;;;13.63;2.50;;;-0.20;96.30;;;;;;4879153;29;20429;-79
2021/12/20 11:14:30;;;;;;;4.60;1.83;;;-0.10;96.30;;;;;;4881222;29;20414;-79
2021/12/20 11:16:58;;;;;;;15.03;2.43;;;-0.10;96.30;;;;;;4880150;29;20458;-79
2021/12/20 11:19:32;;;;;;;7.67;2.30;;;-0.10;96.30;;;;;;4881196;29;20429;-79
2021/12/20 11:21:58;;;;;;;5.40;1.60;;;-0.10;96.30;;;;;;4876725;29;20445;-79
2021/12/20 11:24:46;;;;;;;6.40;2.40;;;-0.10;96.30;;;;;;4879016;29;20459;-80
2021/12/20 11:27:18;;;;;;;6.60;2.30;;;-0.10;96.30;;;;;;4877752;29;20204;-79
2021/12/20 11:29:47;;;;;;;7.33;2.13;;;-0.10;96.30;;;;;;4881004;29;20892;-79
2021/12/20 11:32:13;;;;;;;10.80;3.97;;;0.00;96.30;;;;;;4880527;29;20460;-79
2021/12/20 11:34:41;;;;;;;4.43;1.97;;;0.10;96.30;;;;;;4883393;29;20554;-79
2021/12/20 11:37:08;;;;;;;9.13;1.87;;;0.00;96.30;;;;;;4898682;29;20413;-78
2021/12/20 11:39:34;;;;;;;5.90;1.53;;;0.10;96.30;;;;;;4898371;29;20417;-79
2021/12/20 11:42:00;;;;;;;3.87;1.60;;;0.10;96.30;;;;;;4898682;29;20570;-79
2021/12/20 11:44:29;;;;;;;16.67;2.10;;;0.20;96.30;;;;;;4895711;29;20177;-79
2021/12/20 11:47:16;;;;;;;4.17;1.83;;;0.30;96.30;;;;;;4878947;29;20194;-79
2021/12/20 11:49:42;;;;;;;3.93;1.93;;;0.30;96.30;;;;;;4879710;29;20410;-79
2021/12/20 11:52:18;;;;;;;7.30;2.30;;;0.30;96.30;;;;;;4879143;29;20453;-79
2021/12/20 11:54:45;;;;;;;9.20;2.07;;;0.30;96.30;;;;;;4879436;29;20177;-79
2021/12/20 11:57:34;;;;;;;14.50;2.53;;;0.30;96.30;;;;;;4880727;29;20422;-79
2021/12/20 12:00:08;;;;;;;3.07;1.90;;;0.30;96.30;;;;;;4879591;29;20450;-78
2021/12/20 12:02:41;;;;;;;5.67;1.73;;;0.30;96.30;;;;;;4880367;29;20508;-78
2021/12/20 12:05:15;;;;;;;3.90;1.70;;;0.20;96.30;;;;;;4884765;29;20501;-79
2021/12/20 12:07:41;;;;;;;4.73;1.50;;;0.30;96.30;;;;;;4892719;29;20429;-80
2021/12/20 12:10:11;;;;;;;4.93;2.00;;;0.20;96.30;;;;;;4881527;29;20422;-80
2021/12/20 12:12:41;;;;;;;4.53;1.53;;;0.20;96.30;;;;;;4881098;29;20905;-79
2021/12/20 12:15:14;;;;;;;6.67;1.90;;;0.20;96.30;;;;;;4879010;29;20461;-79
2021/12/20 12:17:52;;;;;;;5.70;2.27;;;0.20;96.30;;;;;;4894161;29;20428;-79
2021/12/20 12:20:38;;;;;;;5.90;1.77;;;0.30;96.30;;;;;;4886343;29;21018;-79
2021/12/20 12:23:16;;;;;;;6.00;1.90;;;0.30;96.30;;;;;;4875270;29;20511;-80
2021/12/20 12:25:49;;;;;;;8.17;1.80;;;0.40;96.30;;;;;;4896677;29;20436;-80
2021/12/20 12:28:21;;;;;;;3.53;1.90;;;0.40;96.30;;;;;;4875760;29;20441;-79
2021/12/20 12:31:03;;;;;;;9.07;2.50;;;0.40;96.30;;;;;;4876674;29;20565;-80
2021/12/20 12:33:32;;;;;;;5.70;1.60;;;0.40;96.30;;;;;;4876815;29;20421;-78
2021/12/20 12:36:01;;;;;;;4.70;1.77;;;0.40;96.30;;;;;;4868048;29;20472;-78
2021/12/20 12:38:35;;;;;;;7.20;1.63;;;0.40;96.30;;;;;;4878816;29;20432;-79
2021/12/20 12:41:09;;;;;;;7.27;2.27;;;0.40;96.30;;;;;;4875495;29;20917;-79
2021/12/20 12:43:53;;;;;;;7.23;1.83;;;0.50;96.30;;;;;;4862371;29;20437;-78
2021/12/20 12:46:41;;;;;;;3.87;1.87;;;0.40;96.30;;;;;;4869561;29;20433;-80
2021/12/20 12:49:19;;;;;;;6.50;1.43;;;0.40;96.30;;;;;;4878870;29;20453;-77
2021/12/20 12:51:45;;;;;;;7.93;1.60;;;0.40;96.30;;;;;;4879442;29;20445;-78
2021/12/20 12:54:37;;;;;;;7.10;2.70;;;0.40;96.30;;;;;;4893752;29;20413;-79
2021/12/20 12:57:11;;;;;;;1.80;1.30;;;0.50;96.30;;;;;;4872282;29;20428;-79
2021/12/20 12:59:58;;;;;;;5.63;1.50;;;0.40;96.30;;;;;;4886270;29;20409;-79
2021/12/20 13:02:33;;;;;;;3.37;1.37;;;0.30;96.30;;;;;;4890861;29;20497;-81
2021/12/20 13:05:14;;;;;;;13.90;2.10;;;0.30;96.30;;;;;;4874430;29;20978;-79
2021/12/20 13:07:43;;;;;;;6.40;1.73;;;0.30;96.30;;;;;;4864424;29;20465;-79
2021/12/20 13:10:30;;;;;;;3.50;1.70;;;0.30;96.30;;;;;;4859601;29;20430;-79
2021/12/20 13:13:05;;;;;;;4.37;1.53;;;0.40;96.30;;;;;;4860797;29;20900;-79
2021/12/20 13:15:44;;;;;;;2.37;1.30;;;0.40;96.30;;;;;;4860017;29;20482;-79
2021/12/20 13:18:16;;;;;;;6.60;1.70;;;0.40;96.30;;;;;;4879444;29;20414;-79
2021/12/20 13:20:49;;;;;;;3.27;1.63;;;0.40;96.30;;;;;;4877793;29;20474;-79
2021/12/20 13:23:19;;;;;;;8.90;1.67;;;0.40;96.30;;;;;;4879343;29;20794;-79
2021/12/20 13:25:56;;;;;;;11.10;1.97;;;0.30;96.30;;;;;;4877330;29;20426;-80
2021/12/20 13:28:26;;;;;;;6.60;1.67;;;0.30;96.30;;;;;;4879331;29;20533;-79
2021/12/20 13:30:58;;;;;;;13.90;3.03;;;0.40;96.30;;;;;;4878705;29;20485;-79
2021/12/20 13:33:29;;;;;;;5.63;1.50;;;0.40;96.30;;;;;;4878069;29;20429;-80
2021/12/20 13:35:56;;;;;;;8.10;1.80;;;0.30;96.30;;;;;;4884234;29;21045;-79
2021/12/20 13:38:28;;;;;;;6.10;1.93;;;0.30;96.30;;;;;;4887330;29;20512;-79
2021/12/20 13:41:14;;;;;;;6.50;1.70;;;0.30;96.30;;;;;;4884387;29;20470;-79
2021/12/20 13:43:46;;;;;;;2.50;1.40;;;0.20;96.30;;;;;;4859134;29;20418;-79
2021/12/20 13:46:30;;;;;;;4.13;1.70;;;0.20;96.30;;;;;;4866637;29;20429;-79
2021/12/20 13:49:06;;;;;;;11.10;2.87;;;0.30;96.30;;;;;;4879183;29;20958;-81
2021/12/20 13:51:36;;;;;;;7.30;2.00;;;0.20;96.30;;;;;;4877774;29;20457;-80
2021/12/20 13:54:24;;;;;;;10.87;1.60;;;0.30;96.30;;;;;;4877687;29;20438;-80
2021/12/20 13:57:00;;;;;;;6.37;1.57;;;0.20;96.30;;;;;;4888124;29;20899;-76
2021/12/20 13:59:32;;;;;;;8.30;1.50;;;0.20;96.30;;;;;;4893058;29;20794;-77
2021/12/20 14:01:59;;;;;;;2.87;1.40;;;0.20;96.30;;;;;;4874466;29;20439;-78
2021/12/20 14:04:30;;;;;;;4.83;1.47;;;0.20;96.30;;;;;;4875289;29;20524;-79
2021/12/20 14:06:58;;;;;;;9.60;1.40;;;0.20;96.30;;;;;;4873959;29;20429;-79
2021/12/20 14:09:34;;;;;;;7.00;2.00;;;0.20;96.30;;;;;;4876616;29;20441;-77
2021/12/20 14:12:15;;;;;;;5.20;1.67;;;0.20;96.30;;;;;;4881362;29;20438;-79
2021/12/20 14:14:59;;;;;;;3.57;1.60;;;0.10;96.30;;;;;;4877945;29;20422;-77
2021/12/20 14:17:25;;;;;;;5.27;1.70;;;0.10;96.30;;;;;;4883379;29;20421;-78
2021/12/20 14:20:06;;;;;;;5.30;1.53;;;0.10;96.30;;;;;;4889253;29;20417;-77
2021/12/20 14:22:48;;;;;;;7.27;2.23;;;0.00;96.30;;;;;;4877339;29;20205;-79
2021/12/20 14:25:13;;;;;;;4.73;1.70;;;0.10;96.30;;;;;;4863878;29;20517;-79
2021/12/20 14:27:39;;;;;;;5.67;1.77;;;0.10;96.30;;;;;;4858075;29;21014;-79
2021/12/20 14:30:21;;;;;;;4.97;1.33;;;0.00;96.30;;;;;;4858464;29;20194;-78
2021/12/20 14:32:48;;;;;;;6.20;1.50;;;0.00;96.30;;;;;;4875508;29;20699;-78
2021/12/20 14:35:31;;;;;;;7.73;2.13;;;0.00;96.30;;;;;;4878199;29;21026;-78
2021/12/20 14:37:59;;;;;;;3.83;1.60;;;0.00;96.30;;;;;;4877547;29;20802;-78
2021/12/20 14:40:47;;;;;;;6.10;2.13;;;0.00;96.30;;;;;;4876852;29;20914;-79
2021/12/20 14:43:16;;;;;;;8.37;1.50;;;0.00;96.30;;;;;;4878049;29;20403;-79
2021/12/20 14:45:50;;;;;;;6.27;2.00;;;0.00;96.30;;;;;;4877808;29;20410;-79
2021/12/20 14:48:26;;;;;;;5.97;1.50;;;0.00;96.30;;;;;;4878111;29;20406;-79
2021/12/20 14:50:53;;;;;;;4.67;1.97;;;-0.10;96.30;;;;;;4892943;29;20446;-78
2021/12/20 14:53:26;;;;;;;3.63;1.30;;;0.00;96.30;;;;;;4895573;29;20417;-78
2021/12/20 14:55:53;;;;;;;8.80;3.17;;;0.00;96.30;;;;;;4896171;29;20789;-79
2021/12/20 14:58:21;;;;;;;3.90;1.60;;;0.00;96.30;;;;;;4895812;29;20425;-78
2021/12/20 15:00:48;;;;;;;9.33;2.27;;;0.00;96.30;;;;;;4879134;29;20438;-78
2021/12/20 15:03:16;;;;;;;3.47;1.50;;;-0.10;96.30;;;;;;4871522;29;20435;-79
2021/12/20 15:05:45;;;;;;;2.60;1.67;;;0.00;96.30;;;;;;4857690;29;20842;-79
2021/12/20 15:08:12;;;;;;;4.90;1.60;;;-0.10;96.30;;;;;;4875461;29;20902;-78
2021/12/20 15:10:37;;;;;;;5.70;1.70;;;-0.10;96.30;;;;;;4872743;29;20510;-77
2021/12/20 15:13:03;;;;;;;5.30;1.97;;;-0.10;96.30;;;;;;4859109;29;20791;-77
2021/12/20 15:15:28;;;;;;;6.63;2.00;;;-0.10;96.30;;;;;;4861476;29;20274;-78
2021/12/20 15:17:54;;;;;;;6.40;1.90;;;-0.10;96.30;;;;;;4862331;29;20178;-78
2021/12/20 15:20:21;;;;;;;3.33;1.43;;;-0.20;96.30;;;;;;4862648;29;20520;-78
2021/12/20 15:22:47;;;;;;;3.17;2.00;;;-0.20;96.30;;;;;;4862876;29;20181;-78
2021/12/20 15:25:12;;;;;;;6.87;1.53;;;-0.20;96.30;;;;;;4861290;29;20513;-78
2021/12/20 15:27:38;;;;;;;2.47;1.27;;;-0.10;96.30;;;;;;4866487;29;20216;-78
2021/12/20 15:30:04;;;;;;;9.80;2.53;;;-0.10;96.30;;;;;;4879613;29;20329;-79
2021/12/20 15:32:30;;;;;;;3.73;1.53;;;-0.20;96.30;;;;;;4881133;29;20198;-78
2021/12/20 15:34:56;;;;;;;6.93;1.80;;;-0.20;96.30;;;;;;4881152;29;20454;-78
2021/12/20 15:37:22;;;;;;;6.17;1.67;;;-0.10;96.30;;;;;;4880728;29;20425;-78
2021/12/20 15:39:47;;;;;;;6.00;2.27;;;-0.10;96.30;;;;;;4879981;29;20185;-78
2021/12/20 15:42:18;;;;;;;5.10;2.10;;;-0.10;96.30;;;;;;4880993;29;20197;-78
2021/12/20 15:44:45;;;;;;;5.10;2.10;;;-0.10;96.30;;;;;;4879780;29;20169;-78
2021/12/20 15:47:10;;;;;;;4.60;1.63;;;-0.10;96.30;;;;;;4879036;29;20431;-78
2021/12/20 15:49:36;;;;;;;7.73;1.93;;;-0.10;96.30;;;;;;4881044;29;20418;-78
2021/12/20 15:52:02;;;;;;;7.30;1.90;;;-0.10;96.30;;;;;;4880751;29;20202;-78
2021/12/20 15:54:28;;;;;;;11.07;1.90;;;-0.10;96.30;;;;;;4879736;29;20172;-78
2021/12/20 15:56:53;;;;;;;2.97;1.50;;;-0.10;96.30;;;;;;4878938;29;20461;-78
2021/12/20 15:59:19;;;;;;;12.27;2.23;;;-0.10;96.30;;;;;;4879345;29;20652;-78
2021/12/20 16:01:44;;;;;;;10.67;2.27;;;-0.10;96.30;;;;;;4879481;29;20209;-79
2021/12/20 16:04:10;;;;;;;16.90;2.63;;;-0.10;96.30;;;;;;4874872;29;20237;-78
2021/12/20 16:06:37;;;;;;;10.93;1.80;;;-0.10;96.30;;;;;;4861491;29;20538;-78
2021/12/20 16:09:03;;;;;;;10.00;3.27;;;-0.10;96.30;;;;;;4866727;29;20453;-78
2021/12/20 16:11:28;;;;;;;5.23;2.60;;;-0.10;96.30;;;;;;4879334;29;20449;-77
2021/12/20 16:13:54;;;;;;;3.97;1.80;;;-0.10;96.30;;;;;;4877032;29;20431;-77
2021/12/20 16:16:19;;;;;;;9.20;3.40;;;-0.10;96.30;;;;;;4860260;29;20960;-77
2021/12/20 16:18:45;;;;;;;6.67;1.90;;;-0.10;96.30;;;;;;4861953;29;20184;-78
2021/12/20 16:21:10;;;;;;;8.83;2.53;;;-0.20;96.30;;;;;;4860341;29;20206;-77
2021/12/20 16:23:36;;;;;;;8.03;2.33;;;-0.20;96.30;;;;;;4871904;29;20268;-78
2021/12/20 16:26:02;;;;;;;4.27;1.20;;;-0.20;96.30;;;;;;4879081;29;20178;-78
2021/12/20 16:28:27;;;;;;;5.63;1.57;;;-0.20;96.30;;;;;;4880168;29;20178;-78
2021/12/20 16:30:54;;;;;;;3.97;2.30;;;-0.20;96.30;;;;;;4878642;29;20244;-78
2021/12/20 16:33:22;;;;;;;7.97;2.17;;;-0.20;96.30;;;;;;4880495;29;20548;-76
2021/12/20 16:35:47;;;;;;;7.13;3.20;;;-0.20;96.30;;;;;;4878842;29;21057;-76
2021/12/20 16:38:13;;;;;;;6.37;2.37;;;-0.20;96.30;;;;;;4880627;29;20419;-76
2021/12/20 16:40:38;;;;;;;10.57;3.00;;;-0.20;96.30;;;;;;4879229;29;20208;-76
2021/12/20 16:43:04;;;;;;;8.50;2.33;;;-0.20;96.30;;;;;;4880539;29;20249;-76
2021/12/20 16:48:12;;;;;;;6.30;2.33;;;-0.30;96.30;;;;;;4880651;29;20225;-76
2021/12/20 16:50:38;;;;;;;5.03;2.07;;;-0.30;96.30;;;;;;4879439;29;20874;-76
2021/12/20 16:53:04;;;;;;;7.50;2.80;;;-0.20;96.30;;;;;;4879284;29;20463;-76
2021/12/20 16:55:31;;;;;;;6.33;2.00;;;-0.20;96.30;;;;;;4871046;29;20987;-76
2021/12/20 16:57:57;;;;;;;21.10;2.93;;;-0.20;96.30;;;;;;4860584;29;20855;-76
2021/12/20 17:00:24;;;;;;;15.03;2.97;;;-0.20;96.30;;;;;;4860189;29;20455;-76
2021/12/20 17:02:59;;;;;;;14.60;3.20;;;-0.30;96.30;;;;;;4880142;29;20192;-76
2021/12/20 17:05:44;;;;;;;10.33;3.23;;;-0.30;96.30;;;;;;4886799;29;20855;-76
2021/12/20 17:08:10;;;;;;;7.73;2.90;;;-0.30;96.30;;;;;;4883811;29;20480;-76
2021/12/20 17:10:36;;;;;;;11.47;3.50;;;-0.30;96.30;;;;;;4885893;29;20952;-76
2021/12/20 17:13:01;;;;;;;7.00;2.50;;;-0.20;96.30;;;;;;4880568;29;20418;-76
2021/12/20 17:15:27;;;;;;;6.60;3.20;;;-0.20;96.30;;;;;;4875754;29;20206;-76